Time;durP1;ratioP1;P1;durP2;ratioP2;P2;SDS_P1;SDS_P2;PMS_P1;PMS_P2;Temp;Humidity;BMP_temperature;BMP_pressure;BME280_temperature;BME280_humidity;BME280_pressure;Samples;Min_cycle;Max_cycle;Signal;HPM_P1;HPM_P2
2023/03/08 00:00:36;;;;;;;420.83;173.57;;;3.00;99.90;;;;;;5107307;28;20223;-50
2023/03/08 00:03:04;;;;;;;166.07;150.67;;;3.00;99.90;;;;;;5106434;28;20665;-50
2023/03/08 00:05:33;;;;;;;121.53;109.53;;;3.00;99.90;;;;;;5110424;28;20753;-49
2023/03/08 00:08:01;;;;;;;197.20;160.17;;;3.00;99.90;;;;;;5110578;28;20224;-50
2023/03/08 00:10:30;;;;;;;481.03;251.80;;;2.90;99.90;;;;;;5110341;28;20286;-49
2023/03/08 00:12:58;;;;;;;140.30;127.43;;;2.90;99.90;;;;;;5110551;28;20255;-50
2023/03/08 00:15:26;;;;;;;738.77;426.87;;;2.90;99.90;;;;;;5110340;28;20288;-48
2023/03/08 00:17:54;;;;;;;209.37;187.83;;;2.90;99.90;;;;;;5110600;28;20280;-50
2023/03/08 00:20:22;;;;;;;780.23;370.37;;;2.90;99.90;;;;;;5109603;28;20261;-49
2023/03/08 00:22:51;;;;;;;470.23;271.60;;;2.80;99.90;;;;;;5102785;28;20214;-50
2023/03/08 00:25:19;;;;;;;218.10;195.33;;;2.90;99.90;;;;;;5089722;28;20224;-50
2023/03/08 00:27:47;;;;;;;389.90;270.47;;;2.80;99.90;;;;;;5083313;28;20213;-50
2023/03/08 00:30:16;;;;;;;751.53;463.83;;;2.80;99.90;;;;;;5089371;28;20294;-50
2023/03/08 00:32:44;;;;;;;436.03;393.57;;;2.90;99.90;;;;;;5089726;28;20311;-49
2023/03/08 00:35:12;;;;;;;299.13;237.13;;;2.70;99.90;;;;;;5090016;28;20287;-50
2023/03/08 00:37:40;;;;;;;142.10;129.93;;;2.80;99.90;;;;;;5089773;28;20299;-50
2023/03/08 00:40:11;;;;;;;389.53;353.13;;;2.80;99.90;;;;;;5089411;28;20243;-50
2023/03/08 00:42:39;;;;;;;205.73;178.40;;;2.80;99.90;;;;;;5087389;28;20237;-50
2023/03/08 00:45:08;;;;;;;311.20;282.47;;;2.80;99.90;;;;;;5079806;28;20247;-49
2023/03/08 00:47:37;;;;;;;200.83;164.93;;;2.80;99.90;;;;;;5081663;28;20297;-50
2023/03/08 00:50:06;;;;;;;760.03;359.43;;;2.80;99.90;;;;;;5089299;28;20782;-49
2023/03/08 00:52:34;;;;;;;399.93;260.33;;;2.80;99.90;;;;;;5089050;28;20317;-50
2023/03/08 00:55:02;;;;;;;179.37;163.93;;;2.80;99.90;;;;;;5089552;28;20216;-50
2023/03/08 00:57:32;;;;;;;176.57;161.60;;;2.80;99.90;;;;;;5089071;28;20212;-49
2023/03/08 01:00:00;;;;;;;212.43;191.60;;;2.70;99.90;;;;;;5089274;28;20747;-50
2023/03/08 01:02:28;;;;;;;193.97;173.93;;;2.80;99.90;;;;;;5088962;28;20228;-49
2023/03/08 01:04:56;;;;;;;119.60;109.63;;;2.70;99.90;;;;;;5089534;28;20300;-50
2023/03/08 01:07:27;;;;;;;126.03;115.53;;;2.70;99.90;;;;;;5076106;28;20289;-49
2023/03/08 01:09:55;;;;;;;447.77;301.30;;;2.80;99.90;;;;;;5088664;28;20209;-49
2023/03/08 01:12:24;;;;;;;209.77;190.23;;;2.70;99.90;;;;;;5088617;28;20348;-49
2023/03/08 01:14:53;;;;;;;217.53;197.07;;;2.80;99.90;;;;;;5089407;28;20220;-50
2023/03/08 01:17:21;;;;;;;515.03;351.93;;;2.80;99.90;;;;;;5089170;28;20324;-50
2023/03/08 01:19:49;;;;;;;221.37;198.63;;;2.70;99.90;;;;;;5089217;28;20204;-50
2023/03/08 01:22:17;;;;;;;229.07;207.73;;;2.60;99.90;;;;;;5088743;28;20597;-50
2023/03/08 01:24:46;;;;;;;132.27;118.83;;;2.60;99.90;;;;;;5089288;28;20287;-50
2023/03/08 01:27:15;;;;;;;200.20;181.53;;;2.70;99.90;;;;;;5088987;28;20311;-49
2023/03/08 01:29:43;;;;;;;461.10;398.60;;;2.70;99.90;;;;;;5088573;28;20233;-50
2023/03/08 01:32:12;;;;;;;285.07;259.00;;;2.60;99.90;;;;;;5088888;28;20224;-49
2023/03/08 01:34:40;;;;;;;241.33;216.90;;;2.60;99.90;;;;;;5089077;28;20218;-50
2023/03/08 01:37:08;;;;;;;279.53;253.13;;;2.60;99.90;;;;;;5090166;28;20295;-51
2023/03/08 01:39:36;;;;;;;179.70;163.63;;;2.70;99.90;;;;;;5090294;28;20211;-49
2023/03/08 01:42:06;;;;;;;223.07;202.27;;;2.70;99.90;;;;;;5089490;28;20259;-49
2023/03/08 01:44:50;;;;;;;215.90;196.63;;;2.70;99.90;;;;;;5090042;28;20219;-50
2023/03/08 01:47:22;;;;;;;182.70;166.43;;;2.70;99.90;;;;;;5090022;28;20288;-50
2023/03/08 01:49:52;;;;;;;187.47;170.93;;;2.70;99.90;;;;;;5090018;28;20681;-50
2023/03/08 01:52:23;;;;;;;208.87;188.93;;;2.70;99.90;;;;;;5090273;28;20299;-50
2023/03/08 01:54:54;;;;;;;236.97;217.23;;;2.60;99.90;;;;;;5093198;28;20219;-50
2023/03/08 01:57:25;;;;;;;321.27;291.13;;;2.70;99.90;;;;;;5092762;28;21020;-50
2023/03/08 01:59:57;;;;;;;337.83;308.33;;;2.70;99.90;;;;;;5093092;28;20322;-50
2023/03/08 02:02:37;;;;;;;187.13;170.43;;;2.70;99.90;;;;;;5092554;28;20329;-50
2023/03/08 02:05:05;;;;;;;202.20;182.27;;;2.60;99.90;;;;;;5083135;28;20218;-50
2023/03/08 02:07:33;;;;;;;152.07;136.20;;;2.50;99.90;;;;;;5092634;28;20287;-49
2023/03/08 02:10:02;;;;;;;366.70;257.77;;;2.50;99.90;;;;;;5092714;28;20225;-50
2023/03/08 02:12:30;;;;;;;205.37;189.63;;;2.50;99.90;;;;;;5092012;28;20315;-50
2023/03/08 02:14:58;;;;;;;394.23;268.37;;;2.50;99.90;;;;;;5092583;28;20575;-50
2023/03/08 02:17:29;;;;;;;369.07;274.43;;;2.50;99.90;;;;;;5091944;28;20650;-50
2023/03/08 02:20:02;;;;;;;298.57;251.30;;;2.60;99.90;;;;;;5092058;28;20212;-50
2023/03/08 02:22:30;;;;;;;289.73;262.40;;;2.60;99.90;;;;;;5092189;28;20673;-50
2023/03/08 02:24:59;;;;;;;246.67;223.77;;;2.50;99.90;;;;;;5092430;28;20303;-50
2023/03/08 02:27:28;;;;;;;514.13;463.77;;;2.50;99.90;;;;;;5092444;28;20208;-49
2023/03/08 02:29:56;;;;;;;369.00;335.07;;;2.50;99.90;;;;;;5092188;28;20226;-48
2023/03/08 02:32:24;;;;;;;257.23;231.20;;;2.50;99.90;;;;;;5091982;28;20224;-50
2023/03/08 02:34:52;;;;;;;268.63;226.33;;;2.50;99.90;;;;;;5091714;28;20200;-49
2023/03/08 02:37:20;;;;;;;206.67;161.37;;;2.50;99.90;;;;;;5092057;28;20231;-50
2023/03/08 02:39:48;;;;;;;182.90;151.60;;;2.40;99.90;;;;;;5092187;28;20210;-50
2023/03/08 02:42:17;;;;;;;304.47;238.20;;;2.40;99.90;;;;;;5091833;28;20248;-50
2023/03/08 02:44:45;;;;;;;125.23;101.30;;;2.50;99.90;;;;;;5091655;28;20235;-50
2023/03/08 02:47:13;;;;;;;261.13;235.67;;;2.40;99.90;;;;;;5092143;28;20296;-50
2023/03/08 02:49:41;;;;;;;331.27;246.00;;;2.40;99.90;;;;;;5085567;28;20225;-49
2023/03/08 02:52:09;;;;;;;158.30;140.83;;;2.50;99.90;;;;;;5091190;28;20223;-50
2023/03/08 02:54:37;;;;;;;247.07;225.53;;;2.40;99.90;;;;;;5092171;28;20201;-50
2023/03/08 02:57:05;;;;;;;275.67;231.63;;;2.50;99.90;;;;;;5092214;28;20281;-49
2023/03/08 02:59:35;;;;;;;367.37;333.13;;;2.40;99.90;;;;;;5091797;28;20244;-50
2023/03/08 03:02:03;;;;;;;246.97;220.27;;;2.50;99.90;;;;;;5091521;28;20314;-50
2023/03/08 03:04:32;;;;;;;325.30;293.73;;;2.40;99.90;;;;;;5090980;28;20247;-50
2023/03/08 03:07:00;;;;;;;301.07;255.33;;;2.50;99.90;;;;;;5091694;28;20236;-49
2023/03/08 03:09:29;;;;;;;237.90;216.00;;;2.50;99.90;;;;;;5091203;28;20288;-50
2023/03/08 03:11:57;;;;;;;170.13;153.57;;;2.50;99.90;;;;;;5091279;28;20670;-50
2023/03/08 03:14:27;;;;;;;386.33;340.37;;;2.50;99.90;;;;;;5091456;28;20289;-50
2023/03/08 03:16:57;;;;;;;533.80;314.20;;;2.40;99.90;;;;;;5091449;28;20700;-50
2023/03/08 03:19:24;;;;;;;319.17;222.63;;;2.50;99.90;;;;;;5091451;28;20311;-49
2023/03/08 03:21:52;;;;;;;214.80;185.83;;;2.30;99.90;;;;;;5090933;28;20319;-49
2023/03/08 03:24:20;;;;;;;251.03;171.87;;;2.30;99.90;;;;;;5089858;28;20208;-51
2023/03/08 03:26:50;;;;;;;257.43;177.33;;;2.40;99.90;;;;;;5096947;28;20273;-50
2023/03/08 03:29:18;;;;;;;250.97;215.87;;;2.40;99.90;;;;;;5098316;28;20247;-50
2023/03/08 03:31:47;;;;;;;578.50;406.40;;;2.30;99.90;;;;;;5097114;28;20261;-50
2023/03/08 03:34:16;;;;;;;371.17;216.13;;;2.30;99.90;;;;;;5091681;28;20213;-50
2023/03/08 03:36:44;;;;;;;306.37;198.87;;;2.20;99.90;;;;;;5077366;28;20201;-48
2023/03/08 03:39:12;;;;;;;256.77;189.27;;;2.20;99.90;;;;;;5091016;28;20293;-50
2023/03/08 03:41:40;;;;;;;268.63;155.13;;;2.20;99.90;;;;;;5090635;28;20247;-50
2023/03/08 03:44:08;;;;;;;199.57;163.00;;;2.30;99.90;;;;;;5090998;28;20212;-50
2023/03/08 03:46:36;;;;;;;396.70;152.80;;;2.20;99.90;;;;;;5090262;28;20205;-49
2023/03/08 03:49:04;;;;;;;242.53;220.20;;;2.20;99.90;;;;;;5090609;28;20239;-48
2023/03/08 03:51:34;;;;;;;173.77;144.80;;;2.30;99.90;;;;;;5090272;28;20343;-50
2023/03/08 03:54:02;;;;;;;1307.67;372.20;;;2.30;99.90;;;;;;5090762;28;20228;-50
2023/03/08 03:56:30;;;;;;;507.27;216.53;;;2.20;99.90;;;;;;5085088;28;20206;-49
2023/03/08 03:58:58;;;;;;;346.10;132.00;;;2.20;99.90;;;;;;5090844;28;20214;-49
2023/03/08 04:01:28;;;;;;;1310.40;411.53;;;2.20;99.90;;;;;;5090150;28;20319;-50
2023/03/08 04:03:56;;;;;;;259.20;233.63;;;2.10;99.90;;;;;;5090384;28;20240;-49
2023/03/08 04:06:26;;;;;;;395.03;260.70;;;2.10;99.90;;;;;;5090331;28;20678;-50
2023/03/08 04:08:58;;;;;;;208.30;166.67;;;2.10;99.90;;;;;;5090329;28;20250;-49
2023/03/08 04:11:28;;;;;;;573.30;308.27;;;2.10;99.90;;;;;;5089801;28;20267;-50
2023/03/08 04:13:57;;;;;;;218.53;170.33;;;2.10;99.90;;;;;;5090040;28;20673;-50
2023/03/08 04:16:27;;;;;;;340.03;247.13;;;2.20;99.90;;;;;;5089374;28;20683;-50
2023/03/08 04:18:58;;;;;;;358.90;273.73;;;2.10;99.90;;;;;;5090105;28;20581;-49
2023/03/08 04:21:26;;;;;;;607.90;258.60;;;2.20;99.90;;;;;;5089822;28;20337;-49
2023/03/08 04:23:56;;;;;;;459.60;332.00;;;2.10;99.90;;;;;;5089664;28;20204;-49
2023/03/08 04:26:27;;;;;;;336.43;303.20;;;2.10;99.90;;;;;;5089867;28;20204;-50
2023/03/08 04:28:55;;;;;;;366.07;260.40;;;2.10;99.90;;;;;;5090076;28;20299;-50
2023/03/08 04:31:25;;;;;;;131.23;117.37;;;2.10;99.90;;;;;;5089511;28;20698;-49
2023/03/08 04:33:54;;;;;;;271.63;211.77;;;2.20;99.90;;;;;;5090059;28;20700;-49
2023/03/08 04:36:22;;;;;;;251.47;164.00;;;2.20;99.90;;;;;;5089714;28;20291;-50
2023/03/08 04:38:51;;;;;;;184.87;154.83;;;2.20;99.90;;;;;;5090154;28;20218;-50
2023/03/08 04:41:20;;;;;;;114.00;101.37;;;2.20;99.90;;;;;;5089094;28;20751;-49
2023/03/08 04:43:50;;;;;;;136.33;121.50;;;2.20;99.90;;;;;;5089951;28;20232;-50
2023/03/08 04:46:20;;;;;;;200.03;105.67;;;2.30;99.90;;;;;;5089616;28;20344;-49
2023/03/08 04:48:51;;;;;;;235.13;210.27;;;2.30;99.90;;;;;;5089388;28;20217;-49
2023/03/08 04:51:20;;;;;;;156.00;138.50;;;2.20;99.90;;;;;;5088835;28;20255;-50
2023/03/08 04:53:48;;;;;;;341.93;307.47;;;2.20;99.90;;;;;;5089489;28;20211;-50
2023/03/08 04:56:16;;;;;;;283.17;238.43;;;2.20;99.90;;;;;;5089609;28;20215;-49
2023/03/08 04:58:46;;;;;;;361.03;216.83;;;2.30;99.90;;;;;;5089514;28;20204;-50
2023/03/08 05:01:16;;;;;;;112.20;96.90;;;2.20;99.90;;;;;;5088576;28;20263;-50
2023/03/08 05:03:45;;;;;;;185.70;105.93;;;2.20;99.90;;;;;;5089501;28;20260;-50
2023/03/08 05:06:13;;;;;;;229.70;176.80;;;2.30;99.90;;;;;;5088889;28;20208;-49
2023/03/08 05:08:42;;;;;;;199.30;148.23;;;2.20;99.90;;;;;;5089053;28;20200;-50
2023/03/08 05:11:11;;;;;;;447.93;322.47;;;2.10;99.90;;;;;;5089066;28;20320;-50
2023/03/08 05:13:39;;;;;;;312.43;172.33;;;2.20;99.90;;;;;;5088506;28;20236;-49
2023/03/08 05:16:08;;;;;;;364.90;297.50;;;2.10;99.90;;;;;;5089492;28;20291;-50
2023/03/08 05:18:37;;;;;;;254.50;179.37;;;2.10;99.90;;;;;;5088798;28;20200;-50
2023/03/08 05:21:07;;;;;;;190.10;164.37;;;2.10;99.90;;;;;;5089071;28;20634;-49
2023/03/08 05:23:35;;;;;;;267.10;239.93;;;2.10;99.90;;;;;;5088978;28;20208;-50
2023/03/08 05:26:05;;;;;;;281.27;254.10;;;2.20;99.90;;;;;;5089429;28;20326;-49
2023/03/08 05:28:35;;;;;;;321.70;290.17;;;2.10;99.90;;;;;;5095093;28;20204;-50
2023/03/08 05:31:05;;;;;;;490.40;328.60;;;2.10;99.90;;;;;;5095305;28;20270;-49
2023/03/08 05:33:35;;;;;;;316.20;162.17;;;2.10;99.90;;;;;;5095603;28;20670;-50
2023/03/08 05:36:04;;;;;;;310.87;276.60;;;2.00;99.90;;;;;;5095940;28;20677;-50
2023/03/08 05:38:33;;;;;;;399.37;268.80;;;1.90;99.90;;;;;;5095597;28;20232;-49
2023/03/08 05:41:02;;;;;;;298.37;190.03;;;1.90;99.90;;;;;;5095874;28;20315;-50
2023/03/08 05:43:30;;;;;;;269.30;201.90;;;1.90;99.90;;;;;;5095917;28;20299;-50
2023/03/08 05:46:01;;;;;;;153.63;137.03;;;2.00;99.90;;;;;;5095846;28;20341;-50
2023/03/08 05:48:29;;;;;;;308.13;172.23;;;2.00;99.90;;;;;;5095855;28;20246;-50
2023/03/08 05:50:59;;;;;;;275.60;228.53;;;2.00;99.90;;;;;;5098950;28;20312;-50
2023/03/08 05:53:27;;;;;;;359.20;163.33;;;2.00;99.90;;;;;;5085599;28;20287;-49
2023/03/08 05:55:55;;;;;;;287.37;213.67;;;2.00;99.90;;;;;;5099584;28;20214;-49
2023/03/08 05:58:23;;;;;;;163.77;146.07;;;2.00;99.90;;;;;;5099126;28;20242;-50
2023/03/08 06:00:51;;;;;;;245.30;172.03;;;2.10;99.90;;;;;;5097894;28;20315;-49
2023/03/08 06:03:19;;;;;;;486.53;369.83;;;2.00;99.90;;;;;;5095258;28;20241;-50
2023/03/08 06:05:47;;;;;;;595.70;413.73;;;2.10;99.90;;;;;;5095080;28;20564;-49
2023/03/08 06:08:16;;;;;;;1378.70;508.90;;;2.10;99.90;;;;;;5095711;28;20211;-49
2023/03/08 06:10:44;;;;;;;372.60;302.30;;;2.00;99.90;;;;;;5095227;28;20281;-50
2023/03/08 06:13:12;;;;;;;275.20;218.00;;;1.90;99.90;;;;;;5095594;28;20238;-49
2023/03/08 06:15:40;;;;;;;370.03;297.37;;;1.90;99.90;;;;;;5095654;28;20308;-49
2023/03/08 06:18:08;;;;;;;422.13;215.37;;;1.90;99.90;;;;;;5095406;28;20228;-49
2023/03/08 06:20:36;;;;;;;492.47;388.40;;;1.80;99.90;;;;;;5094960;28;20291;-50
2023/03/08 06:23:04;;;;;;;426.53;294.57;;;1.90;99.90;;;;;;5095569;28;20724;-50
2023/03/08 06:25:33;;;;;;;335.93;258.67;;;1.80;99.90;;;;;;5095534;28;20294;-51
2023/03/08 06:28:01;;;;;;;148.83;134.07;;;1.90;99.90;;;;;;5095550;28;20299;-50
2023/03/08 06:30:29;;;;;;;173.47;128.60;;;1.90;99.90;;;;;;5094938;28;20302;-50
2023/03/08 06:32:57;;;;;;;205.53;172.87;;;2.00;99.90;;;;;;5095394;28;20568;-50
2023/03/08 06:35:25;;;;;;;301.93;230.17;;;2.00;99.90;;;;;;5095632;28;20289;-51
2023/03/08 06:37:53;;;;;;;303.70;262.03;;;2.10;99.90;;;;;;5095187;28;20218;-49
2023/03/08 06:40:21;;;;;;;435.27;389.73;;;2.00;99.90;;;;;;5091376;28;20236;-50
2023/03/08 06:42:51;;;;;;;198.97;180.10;;;2.00;99.90;;;;;;5086065;28;20248;-51
2023/03/08 06:45:19;;;;;;;552.60;335.77;;;2.10;99.90;;;;;;5083129;28;20248;-51
2023/03/08 06:47:46;;;;;;;392.07;332.10;;;2.10;99.90;;;;;;5091757;28;20284;-51
2023/03/08 06:50:15;;;;;;;262.93;240.00;;;2.10;99.90;;;;;;5092008;28;20643;-51
2023/03/08 06:52:43;;;;;;;485.93;356.50;;;2.10;99.90;;;;;;5091998;28;20307;-51
2023/03/08 06:55:11;;;;;;;493.43;219.10;;;2.10;99.90;;;;;;5078096;28;20238;-52
2023/03/08 06:57:39;;;;;;;433.17;285.77;;;2.10;99.90;;;;;;5091997;28;20208;-51
2023/03/08 07:00:12;;;;;;;262.97;235.03;;;2.10;99.90;;;;;;5096122;28;20660;-51
2023/03/08 07:02:40;;;;;;;301.60;272.13;;;2.10;99.90;;;;;;5091455;28;20705;-49
2023/03/08 07:05:09;;;;;;;223.73;184.97;;;2.10;99.90;;;;;;5091589;28;20236;-51
2023/03/08 07:07:38;;;;;;;301.23;221.67;;;2.20;99.90;;;;;;5091692;28;20283;-51
2023/03/08 07:10:09;;;;;;;638.63;304.37;;;2.20;99.90;;;;;;5091920;28;20214;-51
2023/03/08 07:12:39;;;;;;;365.83;326.90;;;2.30;99.90;;;;;;5091117;28;20226;-50
2023/03/08 07:15:09;;;;;;;344.53;273.50;;;2.30;99.90;;;;;;5091463;28;20212;-51
2023/03/08 07:17:39;;;;;;;259.10;192.00;;;2.40;99.90;;;;;;5091451;28;20663;-49
2023/03/08 07:20:08;;;;;;;206.30;183.43;;;2.40;99.90;;;;;;5091305;28;20292;-51
2023/03/08 07:22:36;;;;;;;246.37;216.27;;;2.40;99.90;;;;;;5091134;28;20227;-51
2023/03/08 07:25:05;;;;;;;235.20;215.50;;;2.50;99.90;;;;;;5091235;28;20299;-51
2023/03/08 07:27:33;;;;;;;266.97;229.63;;;2.50;99.90;;;;;;5091216;28;20234;-51
2023/03/08 07:30:01;;;;;;;402.43;349.40;;;2.60;99.90;;;;;;5091076;28;20686;-51
2023/03/08 07:32:30;;;;;;;212.00;192.43;;;2.60;99.90;;;;;;5089969;28;20661;-50
2023/03/08 07:34:58;;;;;;;146.80;130.67;;;2.60;99.90;;;;;;5090645;28;20299;-51
2023/03/08 07:37:27;;;;;;;165.40;145.27;;;2.60;99.90;;;;;;5090959;28;20729;-51
2023/03/08 07:39:55;;;;;;;212.60;175.17;;;2.60;99.90;;;;;;5090966;28;20214;-52
2023/03/08 07:42:23;;;;;;;194.00;175.83;;;2.60;99.90;;;;;;5090587;28;20256;-52
2023/03/08 07:44:51;;;;;;;172.13;155.43;;;2.70;99.90;;;;;;5090425;28;20294;-51
2023/03/08 07:47:19;;;;;;;199.90;181.97;;;2.70;99.90;;;;;;5091144;28;20270;-52
2023/03/08 07:49:48;;;;;;;332.00;296.63;;;2.70;99.90;;;;;;5090432;28;20312;-51
2023/03/08 07:52:16;;;;;;;222.83;190.57;;;2.70;99.90;;;;;;5089952;28;20280;-51
2023/03/08 07:54:44;;;;;;;1020.47;568.73;;;2.70;99.90;;;;;;5090534;28;20287;-50
2023/03/08 07:57:14;;;;;;;294.83;249.00;;;2.60;99.90;;;;;;5090657;28;20238;-51
2023/03/08 07:59:42;;;;;;;135.37;122.17;;;2.50;99.90;;;;;;5090429;28;20259;-50
2023/03/08 08:02:12;;;;;;;244.83;224.00;;;2.60;99.90;;;;;;5090156;28;20255;-52
2023/03/08 08:04:41;;;;;;;321.43;287.50;;;2.70;99.90;;;;;;5090146;28;20300;-51
2023/03/08 08:07:14;;;;;;;244.03;214.90;;;2.80;99.90;;;;;;5090938;28;20277;-51
2023/03/08 08:09:42;;;;;;;435.07;388.40;;;2.80;99.90;;;;;;5090477;28;20219;-51
2023/03/08 08:12:10;;;;;;;99.33;89.40;;;2.80;99.90;;;;;;5090278;28;20657;-51
2023/03/08 08:14:39;;;;;;;140.77;127.50;;;2.80;99.90;;;;;;5090392;28;20289;-52
2023/03/08 08:17:06;;;;;;;599.90;298.40;;;2.90;99.90;;;;;;5090481;28;20232;-51
2023/03/08 08:19:34;;;;;;;595.00;442.77;;;3.00;99.90;;;;;;5090334;28;20286;-51
2023/03/08 08:22:03;;;;;;;221.60;184.03;;;3.00;99.90;;;;;;5089910;28;20223;-50
2023/03/08 08:24:32;;;;;;;315.53;282.93;;;3.00;99.90;;;;;;5089816;28;20697;-51
2023/03/08 08:27:00;;;;;;;759.63;393.33;;;3.00;99.90;;;;;;5090022;28;20310;-51
2023/03/08 08:29:28;;;;;;;800.80;381.93;;;3.00;99.90;;;;;;5090277;28;20211;-50
2023/03/08 08:31:56;;;;;;;445.67;283.73;;;3.10;99.90;;;;;;5089791;28;20316;-51
2023/03/08 08:34:25;;;;;;;320.87;227.63;;;2.90;99.90;;;;;;5089569;28;20265;-51
2023/03/08 08:36:53;;;;;;;167.77;134.33;;;3.00;99.90;;;;;;5089487;28;20211;-51
2023/03/08 08:39:21;;;;;;;434.97;186.57;;;3.00;99.90;;;;;;5089834;28;20296;-50
2023/03/08 08:41:50;;;;;;;122.03;111.13;;;3.00;99.90;;;;;;5089454;28;20774;-52
2023/03/08 08:44:18;;;;;;;671.33;236.30;;;3.10;99.90;;;;;;5089614;28;20648;-51
2023/03/08 08:46:46;;;;;;;132.77;81.90;;;3.10;99.90;;;;;;5088966;28;20677;-51
2023/03/08 08:49:14;;;;;;;252.47;228.87;;;3.10;99.90;;;;;;5089676;28;20937;-51
2023/03/08 08:51:42;;;;;;;191.43;174.27;;;3.20;99.90;;;;;;5089444;28;20314;-51
2023/03/08 08:54:10;;;;;;;384.27;247.97;;;3.30;99.90;;;;;;5089811;28;20229;-51
2023/03/08 08:56:41;;;;;;;134.10;122.30;;;3.30;99.90;;;;;;5089769;28;20214;-50
2023/03/08 08:59:12;;;;;;;1999.90;681.07;;;3.40;99.90;;;;;;5089461;28;20242;-51
2023/03/08 09:01:42;;;;;;;240.77;208.63;;;3.40;99.90;;;;;;5088308;28;20309;-51
2023/03/08 09:04:12;;;;;;;217.20;173.47;;;3.40;99.90;;;;;;5089130;28;20202;-51
2023/03/08 09:06:40;;;;;;;843.33;396.80;;;3.40;99.90;;;;;;5089275;28;20221;-51
2023/03/08 09:09:08;;;;;;;663.37;367.43;;;3.40;99.90;;;;;;5089330;28;20255;-49
2023/03/08 09:11:36;;;;;;;1553.60;404.73;;;3.40;99.90;;;;;;5088622;28;20236;-52
2023/03/08 09:14:23;;;;;;;494.20;265.27;;;3.50;99.90;;;;;;5089249;28;20756;-51
2023/03/08 09:16:51;;;;;;;936.63;258.27;;;3.50;99.90;;;;;;5089019;28;20648;-51
2023/03/08 09:19:20;;;;;;;974.83;374.13;;;3.50;99.90;;;;;;5089296;28;20664;-51
2023/03/08 09:21:48;;;;;;;470.07;238.70;;;3.60;99.90;;;;;;5088772;28;20253;-51
2023/03/08 09:24:16;;;;;;;904.23;232.10;;;3.70;99.90;;;;;;5080975;28;20208;-52
2023/03/08 09:26:44;;;;;;;275.53;162.10;;;3.70;99.90;;;;;;5086521;28;20726;-52
2023/03/08 09:29:12;;;;;;;490.23;275.70;;;3.80;99.90;;;;;;5075435;28;20211;-52
2023/03/08 09:31:44;;;;;;;910.03;341.73;;;3.70;99.90;;;;;;5088368;28;20368;-51
2023/03/08 09:34:13;;;;;;;256.43;210.13;;;3.60;99.90;;;;;;5088720;28;20712;-51
2023/03/08 09:36:42;;;;;;;1308.00;356.07;;;3.60;99.90;;;;;;5088671;28;20201;-50
2023/03/08 09:39:12;;;;;;;546.77;223.90;;;3.60;99.90;;;;;;5088633;28;20210;-52
2023/03/08 09:41:50;;;;;;;528.07;198.17;;;3.60;99.90;;;;;;5088549;28;20704;-51
2023/03/08 09:44:42;;;;;;;117.70;100.53;;;3.70;99.90;;;;;;5088746;28;20289;-51
2023/03/08 09:47:19;;;;;;;667.47;265.37;;;3.70;99.90;;;;;;5089235;28;20212;-51
2023/03/08 09:49:51;;;;;;;261.03;158.37;;;3.70;99.90;;;;;;5088849;28;20195;-52
2023/03/08 09:52:25;;;;;;;1265.30;486.80;;;3.70;99.90;;;;;;5088920;28;20655;-52
2023/03/08 09:54:53;;;;;;;179.13;159.57;;;3.70;99.90;;;;;;5088852;28;20312;-51
2023/03/08 09:57:25;;;;;;;961.73;349.13;;;3.70;99.90;;;;;;5089021;28;20212;-52
2023/03/08 09:59:55;;;;;;;1999.90;785.23;;;3.90;99.90;;;;;;5088893;28;20288;-50
2023/03/08 10:02:34;;;;;;;661.87;320.80;;;3.90;99.90;;;;;;5088527;28;20861;-52
2023/03/08 10:05:08;;;;;;;664.97;238.50;;;4.00;99.90;;;;;;5088666;28;20287;-50
2023/03/08 10:07:51;;;;;;;860.63;334.13;;;4.10;99.90;;;;;;5088938;28;20210;-50
2023/03/08 10:10:32;;;;;;;211.93;189.37;;;4.20;99.90;;;;;;5088557;28;20253;-52
2023/03/08 10:13:16;;;;;;;562.47;312.67;;;4.30;99.90;;;;;;5088601;28;20220;-51
2023/03/08 10:15:49;;;;;;;1051.57;292.30;;;4.40;99.90;;;;;;5087268;28;20228;-51
2023/03/08 10:18:28;;;;;;;378.70;169.60;;;4.40;99.90;;;;;;5092167;28;20297;-50
2023/03/08 10:20:58;;;;;;;396.00;211.53;;;4.50;99.90;;;;;;5092371;28;20312;-52
2023/03/08 10:23:31;;;;;;;240.87;171.00;;;4.50;99.90;;;;;;5084045;28;20243;-51
2023/03/08 10:26:00;;;;;;;505.83;277.00;;;4.50;99.90;;;;;;5092425;28;20218;-50
2023/03/08 10:28:29;;;;;;;1179.67;475.10;;;4.60;99.90;;;;;;5091875;28;20297;-52
2023/03/08 10:30:59;;;;;;;1831.57;601.93;;;4.60;99.90;;;;;;5091610;28;20683;-49
2023/03/08 10:33:33;;;;;;;630.13;229.67;;;4.60;99.90;;;;;;5092540;28;20214;-51
2023/03/08 10:36:05;;;;;;;567.00;223.73;;;4.60;99.90;;;;;;5081965;28;20234;-51
2023/03/08 10:38:35;;;;;;;442.27;227.67;;;4.60;99.90;;;;;;5084854;28;20577;-51
2023/03/08 10:41:06;;;;;;;311.10;168.23;;;4.60;99.90;;;;;;5090730;28;20735;-51
2023/03/08 10:43:40;;;;;;;951.10;287.53;;;4.70;99.90;;;;;;5091737;28;20238;-52
2023/03/08 10:46:13;;;;;;;579.33;288.27;;;4.70;99.90;;;;;;5091829;28;20652;-51
2023/03/08 10:48:43;;;;;;;337.37;156.17;;;4.80;99.90;;;;;;5091777;28;20202;-51
2023/03/08 10:51:17;;;;;;;748.27;256.67;;;4.80;99.90;;;;;;5091326;28;20243;-51
2023/03/08 10:53:54;;;;;;;169.17;121.47;;;4.90;99.90;;;;;;5091447;28;20659;-52
2023/03/08 10:56:26;;;;;;;572.60;284.47;;;5.00;99.90;;;;;;5101826;28;20290;-51
2023/03/08 10:58:56;;;;;;;1102.00;273.60;;;5.10;99.90;;;;;;5091784;28;20556;-51
2023/03/08 11:01:26;;;;;;;695.03;397.40;;;5.00;99.90;;;;;;5091184;28;20280;-52
2023/03/08 11:04:04;;;;;;;395.13;206.60;;;5.10;99.90;;;;;;5091755;28;20283;-51
2023/03/08 11:06:35;;;;;;;1941.03;499.80;;;5.20;99.90;;;;;;5087068;28;20264;-51
2023/03/08 11:09:05;;;;;;;1750.10;440.47;;;5.30;99.90;;;;;;5091880;28;20825;-51
2023/03/08 11:11:41;;;;;;;460.17;177.27;;;5.30;99.90;;;;;;5091216;28;20242;-51
2023/03/08 11:14:11;;;;;;;227.93;153.07;;;5.20;99.90;;;;;;5082478;28;20267;-50
2023/03/08 11:16:48;;;;;;;384.27;212.13;;;5.40;99.90;;;;;;5086053;28;20232;-50
2023/03/08 11:19:31;;;;;;;1998.07;476.47;;;5.60;99.90;;;;;;5091387;28;20212;-51
2023/03/08 11:22:10;;;;;;;475.97;259.27;;;5.60;99.90;;;;;;5090991;28;20258;-51
2023/03/08 11:24:52;;;;;;;418.80;216.37;;;5.50;99.90;;;;;;5090755;28;20298;-51
2023/03/08 11:27:33;;;;;;;801.93;356.27;;;5.70;99.90;;;;;;5090258;28;20241;-51
2023/03/08 11:30:17;;;;;;;256.67;160.00;;;5.70;99.90;;;;;;5090934;28;20272;-51
2023/03/08 11:33:01;;;;;;;891.27;311.20;;;5.80;99.90;;;;;;5091209;28;20692;-51
2023/03/08 11:35:36;;;;;;;362.00;215.13;;;5.70;99.90;;;;;;5091097;28;20318;-51
2023/03/08 11:38:09;;;;;;;1083.63;351.27;;;5.70;99.90;;;;;;5091464;28;20211;-51
2023/03/08 11:40:51;;;;;;;241.03;183.97;;;5.50;99.90;;;;;;5090313;28;20207;-51
2023/03/08 11:43:40;;;;;;;1390.13;353.67;;;5.50;99.90;;;;;;5090832;28;20282;-51
2023/03/08 11:46:15;;;;;;;644.93;256.57;;;5.40;99.90;;;;;;5090499;28;20294;-51
2023/03/08 11:49:05;;;;;;;282.47;152.87;;;5.40;99.90;;;;;;5091360;28;20201;-51
2023/03/08 11:51:43;;;;;;;896.40;350.30;;;5.60;99.90;;;;;;5090408;28;20653;-51
2023/03/08 11:54:18;;;;;;;1457.07;410.80;;;5.50;99.90;;;;;;5090898;28;20232;-51
2023/03/08 11:56:49;;;;;;;1298.67;431.77;;;5.60;99.90;;;;;;5090622;28;20576;-51
2023/03/08 11:59:24;;;;;;;763.97;310.00;;;5.80;99.90;;;;;;5090048;28;20671;-51
2023/03/08 12:01:58;;;;;;;975.63;454.83;;;5.80;99.90;;;;;;5090523;28;20265;-51
2023/03/08 12:04:35;;;;;;;1251.47;356.00;;;5.90;99.90;;;;;;5090313;28;20283;-51
2023/03/08 12:07:09;;;;;;;1108.97;470.07;;;6.00;99.90;;;;;;5075856;28;20208;-51
2023/03/08 12:09:44;;;;;;;987.70;379.63;;;6.00;99.90;;;;;;5090143;28;20227;-52
2023/03/08 12:12:18;;;;;;;815.20;376.63;;;5.90;99.90;;;;;;5075974;28;20769;-51
2023/03/08 12:14:52;;;;;;;387.17;216.17;;;6.00;99.90;;;;;;5090617;28;20302;-51
2023/03/08 12:17:24;;;;;;;472.00;257.10;;;5.90;99.90;;;;;;5090166;28;20287;-51
2023/03/08 12:19:52;;;;;;;1024.50;424.97;;;5.90;99.90;;;;;;5089686;28;20204;-51
2023/03/08 12:22:39;;;;;;;1999.90;795.80;;;5.90;99.90;;;;;;5089578;28;20220;-51
2023/03/08 12:25:16;;;;;;;1312.53;544.97;;;6.00;99.90;;;;;;5089491;28;20857;-51
2023/03/08 12:27:49;;;;;;;1043.97;400.57;;;6.00;99.90;;;;;;5089957;28;20298;-51
2023/03/08 12:30:24;;;;;;;980.47;393.97;;;6.10;99.90;;;;;;5090170;28;20243;-51